Terminal Aerodrome Forecast
Issued by NWS Duluth, MN

Home | Current Version | Previous Version | Text Only | Print | Product List | Glossary On
Versions: 1 2 3 4 5 6 7 8 9 10 11 12 13 14 15 16 17 18
679
FTUS43 KDLH 131139
TAFDLH
TAF
KDLH 131139Z 1312/1412 34009KT P6SM SKC
     FM131500 VRB04KT P6SM SCT100
     FM132100 19008KT P6SM SCT020 BKN050
     FM140200 21011KT P6SM SCT020 BKN060=

USA.gov is the U.S. government's official web portal to all federal, state and local government web resources and services.